sensor_id;sensor_type;location;lat;lon;timestamp;temperature;humidity
1405;DHT22;697;51.114;6.542;2023-04-25T00:01:38;8.60;94.90
1405;DHT22;697;51.114;6.542;2023-04-25T00:04:04;8.50;95.10
1405;DHT22;697;51.114;6.542;2023-04-25T00:06:34;8.50;95.40
1405;DHT22;697;51.114;6.542;2023-04-25T00:09:01;8.50;95.60
1405;DHT22;697;51.114;6.542;2023-04-25T00:11:28;8.50;95.70
1405;DHT22;697;51.114;6.542;2023-04-25T00:13:56;8.50;95.70
1405;DHT22;697;51.114;6.542;2023-04-25T00:16:23;8.50;95.80
1405;DHT22;697;51.114;6.542;2023-04-25T00:18:49;8.50;95.70
1405;DHT22;697;51.114;6.542;2023-04-25T00:21:19;8.50;95.80
1405;DHT22;697;51.114;6.542;2023-04-25T00:23:47;8.50;95.90
1405;DHT22;697;51.114;6.542;2023-04-25T00:26:14;8.40;95.90
1405;DHT22;697;51.114;6.542;2023-04-25T00:28:41;8.40;96.00
1405;DHT22;697;51.114;6.542;2023-04-25T00:31:08;8.40;96.10
1405;DHT22;697;51.114;6.542;2023-04-25T00:33:35;8.30;96.20
1405;DHT22;697;51.114;6.542;2023-04-25T00:36:02;8.40;96.40
1405;DHT22;697;51.114;6.542;2023-04-25T00:38:28;8.40;96.50
1405;DHT22;697;51.114;6.542;2023-04-25T00:40:57;8.30;96.40
1405;DHT22;697;51.114;6.542;2023-04-25T00:43:24;8.30;96.60
1405;DHT22;697;51.114;6.542;2023-04-25T00:45:52;8.30;96.70
1405;DHT22;697;51.114;6.542;2023-04-25T00:48:20;8.20;96.90
1405;DHT22;697;51.114;6.542;2023-04-25T00:50:51;8.20;97.10
1405;DHT22;697;51.114;6.542;2023-04-25T00:53:18;8.20;97.20
1405;DHT22;697;51.114;6.542;2023-04-25T00:55:45;8.20;97.40
1405;DHT22;697;51.114;6.542;2023-04-25T00:58:13;8.20;97.70
1405;DHT22;697;51.114;6.542;2023-04-25T01:00:40;8.30;97.80
1405;DHT22;697;51.114;6.542;2023-04-25T01:03:08;8.30;97.80
1405;DHT22;697;51.114;6.542;2023-04-25T01:05:35;8.30;97.90
1405;DHT22;697;51.114;6.542;2023-04-25T01:08:02;8.30;98.10
1405;DHT22;697;51.114;6.542;2023-04-25T01:10:29;8.30;98.30
1405;DHT22;697;51.114;6.542;2023-04-25T01:12:56;8.30;98.50
1405;DHT22;697;51.114;6.542;2023-04-25T01:15:24;8.30;98.60
1405;DHT22;697;51.114;6.542;2023-04-25T01:17:50;8.30;98.80
1405;DHT22;697;51.114;6.542;2023-04-25T01:20:20;8.40;98.80
1405;DHT22;697;51.114;6.542;2023-04-25T01:22:49;8.40;98.70
1405;DHT22;697;51.114;6.542;2023-04-25T01:25:17;8.30;98.80
1405;DHT22;697;51.114;6.542;2023-04-25T01:27:43;8.30;99.10
1405;DHT22;697;51.114;6.542;2023-04-25T01:30:11;8.40;99.10
1405;DHT22;697;51.114;6.542;2023-04-25T01:32:37;8.50;99.20
1405;DHT22;697;51.114;6.542;2023-04-25T01:35:05;8.60;99.20
1405;DHT22;697;51.114;6.542;2023-04-25T01:37:35;8.60;99.10
1405;DHT22;697;51.114;6.542;2023-04-25T01:40:04;8.70;99.00
1405;DHT22;697;51.114;6.542;2023-04-25T01:42:32;8.60;98.80
1405;DHT22;697;51.114;6.542;2023-04-25T01:44:58;8.70;98.80
1405;DHT22;697;51.114;6.542;2023-04-25T01:47:25;8.80;98.70
1405;DHT22;697;51.114;6.542;2023-04-25T01:49:52;8.70;98.40
1405;DHT22;697;51.114;6.542;2023-04-25T01:52:19;8.70;98.30
1405;DHT22;697;51.114;6.542;2023-04-25T01:54:45;8.70;98.30
1405;DHT22;697;51.114;6.542;2023-04-25T01:57:14;8.80;98.30
1405;DHT22;697;51.114;6.542;2023-04-25T01:59:42;8.90;98.50
1405;DHT22;697;51.114;6.542;2023-04-25T02:02:09;8.90;98.40
1405;DHT22;697;51.114;6.542;2023-04-25T02:04:36;9.00;98.40
1405;DHT22;697;51.114;6.542;2023-04-25T02:07:03;9.00;98.30
1405;DHT22;697;51.114;6.542;2023-04-25T02:09:30;9.10;98.40
1405;DHT22;697;51.114;6.542;2023-04-25T02:11:57;9.10;98.30
1405;DHT22;697;51.114;6.542;2023-04-25T02:14:25;9.10;98.30
1405;DHT22;697;51.114;6.542;2023-04-25T02:16:52;9.20;98.30
1405;DHT22;697;51.114;6.542;2023-04-25T02:19:19;9.20;98.30
1405;DHT22;697;51.114;6.542;2023-04-25T02:21:46;9.20;98.10
1405;DHT22;697;51.114;6.542;2023-04-25T02:24:12;9.20;97.80
1405;DHT22;697;51.114;6.542;2023-04-25T02:26:39;9.20;97.90
1405;DHT22;697;51.114;6.542;2023-04-25T02:29:06;9.20;98.20
1405;DHT22;697;51.114;6.542;2023-04-25T02:31:34;9.20;98.20
1405;DHT22;697;51.114;6.542;2023-04-25T02:34:01;9.20;98.20
1405;DHT22;697;51.114;6.542;2023-04-25T02:36:28;9.20;98.20
1405;DHT22;697;51.114;6.542;2023-04-25T02:38:57;9.20;98.30
1405;DHT22;697;51.114;6.542;2023-04-25T02:41:24;9.10;98.20
1405;DHT22;697;51.114;6.542;2023-04-25T02:43:50;9.10;98.10
1405;DHT22;697;51.114;6.542;2023-04-25T02:46:17;9.10;98.20
1405;DHT22;697;51.114;6.542;2023-04-25T02:48:45;9.10;98.00
1405;DHT22;697;51.114;6.542;2023-04-25T02:51:12;9.10;98.00
1405;DHT22;697;51.114;6.542;2023-04-25T02:53:39;9.10;98.10
1405;DHT22;697;51.114;6.542;2023-04-25T02:56:06;9.20;98.20
1405;DHT22;697;51.114;6.542;2023-04-25T02:58:32;9.20;98.20
1405;DHT22;697;51.114;6.542;2023-04-25T03:00:59;9.20;98.20
1405;DHT22;697;51.114;6.542;2023-04-25T03:03:26;9.20;98.20
1405;DHT22;697;51.114;6.542;2023-04-25T03:05:54;9.20;98.30
1405;DHT22;697;51.114;6.542;2023-04-25T03:08:20;9.20;98.30
1405;DHT22;697;51.114;6.542;2023-04-25T03:10:48;9.10;98.20
1405;DHT22;697;51.114;6.542;2023-04-25T03:13:15;9.10;98.10
1405;DHT22;697;51.114;6.542;2023-04-25T03:15:42;9.10;98.10
1405;DHT22;697;51.114;6.542;2023-04-25T03:18:09;9.10;98.10
1405;DHT22;697;51.114;6.542;2023-04-25T03:20:35;9.10;98.10
1405;DHT22;697;51.114;6.542;2023-04-25T03:23:03;9.00;98.10
1405;DHT22;697;51.114;6.542;2023-04-25T03:25:30;9.00;98.10
1405;DHT22;697;51.114;6.542;2023-04-25T03:27:57;8.90;98.20
1405;DHT22;697;51.114;6.542;2023-04-25T03:30:23;8.80;98.30
1405;DHT22;697;51.114;6.542;2023-04-25T03:32:50;8.80;98.50
1405;DHT22;697;51.114;6.542;2023-04-25T03:35:17;8.80;98.60
1405;DHT22;697;51.114;6.542;2023-04-25T03:37:44;8.80;98.80
1405;DHT22;697;51.114;6.542;2023-04-25T03:40:12;8.70;99.00
1405;DHT22;697;51.114;6.542;2023-04-25T03:42:39;8.70;99.10
1405;DHT22;697;51.114;6.542;2023-04-25T03:45:07;8.70;99.20
1405;DHT22;697;51.114;6.542;2023-04-25T03:47:34;8.70;99.20
1405;DHT22;697;51.114;6.542;2023-04-25T03:50:00;8.70;99.20
1405;DHT22;697;51.114;6.542;2023-04-25T03:52:28;8.70;99.20
1405;DHT22;697;51.114;6.542;2023-04-25T03:54:55;8.70;99.30
1405;DHT22;697;51.114;6.542;2023-04-25T03:57:23;8.70;99.20
1405;DHT22;697;51.114;6.542;2023-04-25T03:59:49;8.70;99.30
1405;DHT22;697;51.114;6.542;2023-04-25T04:02:17;8.70;99.20
1405;DHT22;697;51.114;6.542;2023-04-25T04:04:44;8.80;99.30
1405;DHT22;697;51.114;6.542;2023-04-25T04:07:11;8.70;99.30
1405;DHT22;697;51.114;6.542;2023-04-25T04:09:38;8.70;99.30
1405;DHT22;697;51.114;6.542;2023-04-25T04:12:05;8.70;99.30
1405;DHT22;697;51.114;6.542;2023-04-25T04:14:33;8.70;99.40
1405;DHT22;697;51.114;6.542;2023-04-25T04:16:59;8.70;99.40
1405;DHT22;697;51.114;6.542;2023-04-25T04:19:26;8.80;99.30
1405;DHT22;697;51.114;6.542;2023-04-25T04:21:53;8.80;99.40
1405;DHT22;697;51.114;6.542;2023-04-25T04:24:19;8.90;99.40
1405;DHT22;697;51.114;6.542;2023-04-25T04:26:46;8.80;99.20
1405;DHT22;697;51.114;6.542;2023-04-25T04:29:13;8.80;99.20
1405;DHT22;697;51.114;6.542;2023-04-25T04:31:47;8.80;99.20
1405;DHT22;697;51.114;6.542;2023-04-25T04:34:14;8.80;99.30
1405;DHT22;697;51.114;6.542;2023-04-25T04:36:41;8.90;99.20
1405;DHT22;697;51.114;6.542;2023-04-25T04:39:08;8.90;99.10
1405;DHT22;697;51.114;6.542;2023-04-25T04:41:36;8.90;99.10
1405;DHT22;697;51.114;6.542;2023-04-25T04:44:02;8.90;99.10
1405;DHT22;697;51.114;6.542;2023-04-25T04:46:29;8.90;99.10
1405;DHT22;697;51.114;6.542;2023-04-25T04:48:57;8.90;99.10
1405;DHT22;697;51.114;6.542;2023-04-25T04:51:24;8.90;99.00
1405;DHT22;697;51.114;6.542;2023-04-25T04:53:51;8.90;98.90
1405;DHT22;697;51.114;6.542;2023-04-25T04:56:17;8.90;98.80
1405;DHT22;697;51.114;6.542;2023-04-25T04:58:46;9.00;98.80
1405;DHT22;697;51.114;6.542;2023-04-25T05:01:14;8.90;98.60
1405;DHT22;697;51.114;6.542;2023-04-25T05:03:41;8.90;98.60
1405;DHT22;697;51.114;6.542;2023-04-25T05:06:09;8.90;98.80
1405;DHT22;697;51.114;6.542;2023-04-25T05:08:36;9.00;99.00
1405;DHT22;697;51.114;6.542;2023-04-25T05:11:03;9.10;99.10
1405;DHT22;697;51.114;6.542;2023-04-25T05:13:30;9.10;98.80
1405;DHT22;697;51.114;6.542;2023-04-25T05:15:56;9.00;98.40
1405;DHT22;697;51.114;6.542;2023-04-25T05:18:23;9.00;98.30
1405;DHT22;697;51.114;6.542;2023-04-25T05:20:50;9.10;98.40
1405;DHT22;697;51.114;6.542;2023-04-25T05:23:18;9.10;98.30
1405;DHT22;697;51.114;6.542;2023-04-25T05:25:45;9.10;98.40
1405;DHT22;697;51.114;6.542;2023-04-25T05:28:12;9.10;98.20
1405;DHT22;697;51.114;6.542;2023-04-25T05:30:39;9.20;98.10
1405;DHT22;697;51.114;6.542;2023-04-25T05:33:06;9.20;98.00
1405;DHT22;697;51.114;6.542;2023-04-25T05:35:33;9.20;97.80
1405;DHT22;697;51.114;6.542;2023-04-25T05:38:00;9.30;97.70
1405;DHT22;697;51.114;6.542;2023-04-25T05:40:28;9.30;97.50
1405;DHT22;697;51.114;6.542;2023-04-25T05:42:54;9.40;97.30
1405;DHT22;697;51.114;6.542;2023-04-25T05:45:21;9.30;97.00
1405;DHT22;697;51.114;6.542;2023-04-25T05:47:48;9.30;96.70
1405;DHT22;697;51.114;6.542;2023-04-25T05:50:15;9.40;96.90
1405;DHT22;697;51.114;6.542;2023-04-25T05:52:42;9.40;96.80
1405;DHT22;697;51.114;6.542;2023-04-25T05:55:09;9.40;96.60
1405;DHT22;697;51.114;6.542;2023-04-25T05:57:37;9.40;96.70
1405;DHT22;697;51.114;6.542;2023-04-25T06:00:07;9.40;96.60
1405;DHT22;697;51.114;6.542;2023-04-25T06:02:34;9.50;96.60
1405;DHT22;697;51.114;6.542;2023-04-25T06:05:01;9.50;96.30
1405;DHT22;697;51.114;6.542;2023-04-25T06:07:29;9.50;96.00
1405;DHT22;697;51.114;6.542;2023-04-25T06:09:56;9.60;96.20
1405;DHT22;697;51.114;6.542;2023-04-25T06:12:23;9.70;96.30
1405;DHT22;697;51.114;6.542;2023-04-25T06:14:51;9.70;96.20
1405;DHT22;697;51.114;6.542;2023-04-25T06:17:17;9.90;96.10
1405;DHT22;697;51.114;6.542;2023-04-25T06:19:44;10.00;95.00
1405;DHT22;697;51.114;6.542;2023-04-25T06:22:11;10.00;94.50
1405;DHT22;697;51.114;6.542;2023-04-25T06:24:37;10.00;94.10
1405;DHT22;697;51.114;6.542;2023-04-25T06:27:04;10.10;94.40
1405;DHT22;697;51.114;6.542;2023-04-25T06:29:31;10.20;94.30
1405;DHT22;697;51.114;6.542;2023-04-25T06:31:59;10.30;94.20
1405;DHT22;697;51.114;6.542;2023-04-25T06:34:26;10.40;93.90
1405;DHT22;697;51.114;6.542;2023-04-25T06:36:52;10.60;93.90
1405;DHT22;697;51.114;6.542;2023-04-25T06:39:19;10.70;93.50
1405;DHT22;697;51.114;6.542;2023-04-25T06:41:48;10.70;92.70
1405;DHT22;697;51.114;6.542;2023-04-25T06:44:15;10.80;92.60
1405;DHT22;697;51.114;6.542;2023-04-25T06:46:42;10.80;92.20
1405;DHT22;697;51.114;6.542;2023-04-25T06:49:10;10.90;92.10
1405;DHT22;697;51.114;6.542;2023-04-25T06:51:36;10.90;91.80
1405;DHT22;697;51.114;6.542;2023-04-25T06:54:03;11.00;91.40
1405;DHT22;697;51.114;6.542;2023-04-25T06:56:30;11.00;91.40
1405;DHT22;697;51.114;6.542;2023-04-25T06:58:57;11.00;91.00
1405;DHT22;697;51.114;6.542;2023-04-25T07:01:25;11.10;91.40
1405;DHT22;697;51.114;6.542;2023-04-25T07:03:52;11.10;91.40
1405;DHT22;697;51.114;6.542;2023-04-25T07:06:20;11.30;91.10
1405;DHT22;697;51.114;6.542;2023-04-25T07:08:47;11.40;90.80
1405;DHT22;697;51.114;6.542;2023-04-25T07:11:13;11.50;90.50
1405;DHT22;697;51.114;6.542;2023-04-25T07:13:40;11.60;90.40
1405;DHT22;697;51.114;6.542;2023-04-25T07:16:07;11.70;90.50
1405;DHT22;697;51.114;6.542;2023-04-25T07:18:33;11.70;90.20
1405;DHT22;697;51.114;6.542;2023-04-25T07:21:00;11.80;90.20
1405;DHT22;697;51.114;6.542;2023-04-25T07:23:28;11.90;89.70
1405;DHT22;697;51.114;6.542;2023-04-25T07:25:55;11.90;88.10
1405;DHT22;697;51.114;6.542;2023-04-25T07:28:22;12.00;87.60
1405;DHT22;697;51.114;6.542;2023-04-25T07:30:49;12.10;87.10
1405;DHT22;697;51.114;6.542;2023-04-25T07:33:15;12.20;85.90
1405;DHT22;697;51.114;6.542;2023-04-25T07:35:42;12.20;84.20
1405;DHT22;697;51.114;6.542;2023-04-25T07:38:09;12.20;83.30
1405;DHT22;697;51.114;6.542;2023-04-25T07:40:37;12.30;82.70
1405;DHT22;697;51.114;6.542;2023-04-25T07:43:03;12.20;81.00
1405;DHT22;697;51.114;6.542;2023-04-25T07:45:30;12.30;82.10
1405;DHT22;697;51.114;6.542;2023-04-25T07:47:57;12.40;83.40
1405;DHT22;697;51.114;6.542;2023-04-25T07:50:23;12.50;83.40
1405;DHT22;697;51.114;6.542;2023-04-25T07:52:50;12.60;81.10
1405;DHT22;697;51.114;6.542;2023-04-25T07:55:17;12.90;81.60
1405;DHT22;697;51.114;6.542;2023-04-25T07:57:45;13.00;78.50
1405;DHT22;697;51.114;6.542;2023-04-25T08:00:13;13.10;75.90
1405;DHT22;697;51.114;6.542;2023-04-25T08:02:40;13.10;74.00
1405;DHT22;697;51.114;6.542;2023-04-25T08:05:07;13.20;74.90
1405;DHT22;697;51.114;6.542;2023-04-25T08:07:37;13.30;75.20
1405;DHT22;697;51.114;6.542;2023-04-25T08:10:04;13.40;75.70
1405;DHT22;697;51.114;6.542;2023-04-25T08:12:31;13.50;72.20
1405;DHT22;697;51.114;6.542;2023-04-25T08:14:59;13.80;73.60
1405;DHT22;697;51.114;6.542;2023-04-25T08:17:26;13.90;71.30
1405;DHT22;697;51.114;6.542;2023-04-25T08:19:53;14.00;70.20
1405;DHT22;697;51.114;6.542;2023-04-25T08:22:20;14.00;67.80
1405;DHT22;697;51.114;6.542;2023-04-25T08:24:47;13.90;68.00
1405;DHT22;697;51.114;6.542;2023-04-25T08:27:14;13.90;67.30
1405;DHT22;697;51.114;6.542;2023-04-25T08:29:41;13.90;67.10
1405;DHT22;697;51.114;6.542;2023-04-25T08:32:09;13.90;66.40
1405;DHT22;697;51.114;6.542;2023-04-25T08:34:36;13.90;64.20
1405;DHT22;697;51.114;6.542;2023-04-25T08:37:04;14.00;64.80
1405;DHT22;697;51.114;6.542;2023-04-25T08:39:31;14.30;66.40
1405;DHT22;697;51.114;6.542;2023-04-25T08:41:58;14.50;64.60
1405;DHT22;697;51.114;6.542;2023-04-25T08:44:26;14.70;62.50
1405;DHT22;697;51.114;6.542;2023-04-25T08:46:54;14.80;62.60
1405;DHT22;697;51.114;6.542;2023-04-25T08:49:23;15.00;63.00
1405;DHT22;697;51.114;6.542;2023-04-25T08:51:50;15.00;61.50
1405;DHT22;697;51.114;6.542;2023-04-25T08:54:21;15.10;61.40
1405;DHT22;697;51.114;6.542;2023-04-25T08:56:51;15.00;58.80
1405;DHT22;697;51.114;6.542;2023-04-25T08:59:18;15.00;59.10
1405;DHT22;697;51.114;6.542;2023-04-25T09:01:45;15.10;59.60
1405;DHT22;697;51.114;6.542;2023-04-25T09:04:12;15.10;58.50
1405;DHT22;697;51.114;6.542;2023-04-25T09:06:41;15.20;58.60
1405;DHT22;697;51.114;6.542;2023-04-25T09:09:09;15.30;58.00
1405;DHT22;697;51.114;6.542;2023-04-25T09:11:36;15.30;58.80
1405;DHT22;697;51.114;6.542;2023-04-25T09:14:14;15.40;56.70
1405;DHT22;697;51.114;6.542;2023-04-25T09:16:59;15.30;57.60
1405;DHT22;697;51.114;6.542;2023-04-25T09:19:27;15.30;58.20
1405;DHT22;697;51.114;6.542;2023-04-25T09:21:57;15.10;57.00
1405;DHT22;697;51.114;6.542;2023-04-25T09:24:35;14.90;56.80
1405;DHT22;697;51.114;6.542;2023-04-25T09:27:05;14.70;58.50
1405;DHT22;697;51.114;6.542;2023-04-25T09:29:33;14.60;59.20
1405;DHT22;697;51.114;6.542;2023-04-25T09:32:15;14.80;61.50
1405;DHT22;697;51.114;6.542;2023-04-25T09:34:43;15.40;63.20
1405;DHT22;697;51.114;6.542;2023-04-25T09:37:17;16.00;62.70
1405;DHT22;697;51.114;6.542;2023-04-25T09:39:45;16.40;59.40
1405;DHT22;697;51.114;6.542;2023-04-25T09:42:12;16.60;57.50
1405;DHT22;697;51.114;6.542;2023-04-25T09:44:42;16.60;56.50
1405;DHT22;697;51.114;6.542;2023-04-25T09:47:10;16.60;56.10
1405;DHT22;697;51.114;6.542;2023-04-25T09:49:39;16.40;54.90
1405;DHT22;697;51.114;6.542;2023-04-25T09:52:07;16.30;54.60
1405;DHT22;697;51.114;6.542;2023-04-25T09:54:35;16.20;54.10
1405;DHT22;697;51.114;6.542;2023-04-25T09:57:10;16.20;55.50
1405;DHT22;697;51.114;6.542;2023-04-25T09:59:39;16.50;54.60
1405;DHT22;697;51.114;6.542;2023-04-25T10:02:09;16.60;52.20
1405;DHT22;697;51.114;6.542;2023-04-25T10:04:37;16.50;52.80
1405;DHT22;697;51.114;6.542;2023-04-25T10:07:06;16.40;54.00
1405;DHT22;697;51.114;6.542;2023-04-25T10:09:36;16.20;54.60
1405;DHT22;697;51.114;6.542;2023-04-25T10:12:05;16.10;55.20
1405;DHT22;697;51.114;6.542;2023-04-25T10:14:32;16.00;55.20
1405;DHT22;697;51.114;6.542;2023-04-25T10:17:00;15.80;53.70
1405;DHT22;697;51.114;6.542;2023-04-25T10:19:27;15.80;53.60
1405;DHT22;697;51.114;6.542;2023-04-25T10:22:02;15.70;53.80
1405;DHT22;697;51.114;6.542;2023-04-25T10:24:29;15.70;53.80
1405;DHT22;697;51.114;6.542;2023-04-25T10:26:58;15.70;53.90
1405;DHT22;697;51.114;6.542;2023-04-25T10:29:26;15.90;54.60
1405;DHT22;697;51.114;6.542;2023-04-25T10:31:53;16.10;53.50
1405;DHT22;697;51.114;6.542;2023-04-25T10:34:24;16.30;52.50
1405;DHT22;697;51.114;6.542;2023-04-25T10:36:52;16.80;53.60
1405;DHT22;697;51.114;6.542;2023-04-25T10:39:23;17.30;50.00
1405;DHT22;697;51.114;6.542;2023-04-25T10:41:55;17.40;49.30
1405;DHT22;697;51.114;6.542;2023-04-25T10:44:26;17.20;48.50
1405;DHT22;697;51.114;6.542;2023-04-25T10:46:55;17.10;50.00
1405;DHT22;697;51.114;6.542;2023-04-25T10:49:33;17.00;51.30
1405;DHT22;697;51.114;6.542;2023-04-25T10:52:14;17.10;48.50
1405;DHT22;697;51.114;6.542;2023-04-25T10:54:42;17.50;47.60
1405;DHT22;697;51.114;6.542;2023-04-25T10:57:28;17.80;43.90
1405;DHT22;697;51.114;6.542;2023-04-25T10:59:59;17.90;45.70
1405;DHT22;697;51.114;6.542;2023-04-25T11:02:26;17.90;45.10
1405;DHT22;697;51.114;6.542;2023-04-25T11:04:54;18.10;44.50
1405;DHT22;697;51.114;6.542;2023-04-25T11:07:29;18.20;43.60
1405;DHT22;697;51.114;6.542;2023-04-25T11:10:02;18.50;43.50
1405;DHT22;697;51.114;6.542;2023-04-25T11:12:30;18.80;42.30
1405;DHT22;697;51.114;6.542;2023-04-25T11:15:02;19.10;41.60
1405;DHT22;697;51.114;6.542;2023-04-25T11:17:29;20.10;39.70
1405;DHT22;697;51.114;6.542;2023-04-25T11:19:56;21.30;38.40
1405;DHT22;697;51.114;6.542;2023-04-25T11:22:23;22.30;38.50
1405;DHT22;697;51.114;6.542;2023-04-25T11:24:50;23.50;35.00
1405;DHT22;697;51.114;6.542;2023-04-25T11:27:17;24.40;29.40
1405;DHT22;697;51.114;6.542;2023-04-25T11:29:44;25.10;29.30
1405;DHT22;697;51.114;6.542;2023-04-25T11:32:15;25.00;27.20
1405;DHT22;697;51.114;6.542;2023-04-25T11:34:43;24.70;28.40
1405;DHT22;697;51.114;6.542;2023-04-25T11:37:10;25.20;28.30
1405;DHT22;697;51.114;6.542;2023-04-25T11:39:37;25.70;28.40
1405;DHT22;697;51.114;6.542;2023-04-25T11:42:04;25.70;27.20
1405;DHT22;697;51.114;6.542;2023-04-25T11:44:32;25.50;27.50
1405;DHT22;697;51.114;6.542;2023-04-25T11:46:59;24.60;27.20
1405;DHT22;697;51.114;6.542;2023-04-25T11:49:30;23.50;29.50
1405;DHT22;697;51.114;6.542;2023-04-25T11:51:56;22.70;30.50
1405;DHT22;697;51.114;6.542;2023-04-25T11:54:23;22.00;30.80
1405;DHT22;697;51.114;6.542;2023-04-25T11:56:50;21.40;32.70
1405;DHT22;697;51.114;6.542;2023-04-25T11:59:17;20.80;33.70
1405;DHT22;697;51.114;6.542;2023-04-25T12:01:50;20.60;35.30
1405;DHT22;697;51.114;6.542;2023-04-25T12:04:18;20.50;36.90
1405;DHT22;697;51.114;6.542;2023-04-25T12:06:48;20.50;38.00
1405;DHT22;697;51.114;6.542;2023-04-25T12:09:17;20.30;37.00
1405;DHT22;697;51.114;6.542;2023-04-25T12:11:46;20.00;36.40
1405;DHT22;697;51.114;6.542;2023-04-25T12:14:21;19.80;37.30
1405;DHT22;697;51.114;6.542;2023-04-25T12:16:50;20.20;37.80
1405;DHT22;697;51.114;6.542;2023-04-25T12:19:19;20.80;36.70
1405;DHT22;697;51.114;6.542;2023-04-25T12:21:48;21.70;35.40
1405;DHT22;697;51.114;6.542;2023-04-25T12:24:16;22.50;33.60
1405;DHT22;697;51.114;6.542;2023-04-25T12:26:52;22.80;30.30
1405;DHT22;697;51.114;6.542;2023-04-25T12:29:21;22.80;32.30
1405;DHT22;697;51.114;6.542;2023-04-25T12:31:48;22.60;30.10
1405;DHT22;697;51.114;6.542;2023-04-25T12:34:15;22.50;29.30
1405;DHT22;697;51.114;6.542;2023-04-25T12:36:42;22.70;29.80
1405;DHT22;697;51.114;6.542;2023-04-25T12:39:14;23.60;30.90
1405;DHT22;697;51.114;6.542;2023-04-25T12:41:41;24.80;30.70
1405;DHT22;697;51.114;6.542;2023-04-25T12:44:08;26.10;26.30
1405;DHT22;697;51.114;6.542;2023-04-25T12:46:35;27.10;25.70
1405;DHT22;697;51.114;6.542;2023-04-25T12:49:01;28.10;23.80
1405;DHT22;697;51.114;6.542;2023-04-25T12:51:28;28.40;23.00
1405;DHT22;697;51.114;6.542;2023-04-25T12:53:55;28.50;22.10
1405;DHT22;697;51.114;6.542;2023-04-25T12:56:23;28.30;20.80
1405;DHT22;697;51.114;6.542;2023-04-25T12:58:51;28.30;21.40
1405;DHT22;697;51.114;6.542;2023-04-25T13:01:18;28.50;22.20
1405;DHT22;697;51.114;6.542;2023-04-25T13:03:44;28.30;20.80
1405;DHT22;697;51.114;6.542;2023-04-25T13:06:11;28.60;22.10
1405;DHT22;697;51.114;6.542;2023-04-25T13:08:38;29.30;22.50
1405;DHT22;697;51.114;6.542;2023-04-25T13:11:06;30.10;21.00
1405;DHT22;697;51.114;6.542;2023-04-25T13:13:34;31.00;20.80
1405;DHT22;697;51.114;6.542;2023-04-25T13:16:02;31.80;20.10
1405;DHT22;697;51.114;6.542;2023-04-25T13:18:29;32.00;19.90
1405;DHT22;697;51.114;6.542;2023-04-25T13:20:56;32.10;20.10
1405;DHT22;697;51.114;6.542;2023-04-25T13:23:24;31.30;20.10
1405;DHT22;697;51.114;6.542;2023-04-25T13:25:51;30.10;21.00
1405;DHT22;697;51.114;6.542;2023-04-25T13:28:18;29.80;22.60
1405;DHT22;697;51.114;6.542;2023-04-25T13:30:46;30.30;22.00
1405;DHT22;697;51.114;6.542;2023-04-25T13:33:14;31.20;21.00
1405;DHT22;697;51.114;6.542;2023-04-25T13:35:42;32.10;20.30
1405;DHT22;697;51.114;6.542;2023-04-25T13:38:08;32.80;19.70
1405;DHT22;697;51.114;6.542;2023-04-25T13:40:35;32.00;18.90
1405;DHT22;697;51.114;6.542;2023-04-25T13:43:02;30.50;19.80
1405;DHT22;697;51.114;6.542;2023-04-25T13:45:28;28.50;21.60
1405;DHT22;697;51.114;6.542;2023-04-25T13:47:56;26.60;23.80
1405;DHT22;697;51.114;6.542;2023-04-25T13:50:23;24.80;25.40
1405;DHT22;697;51.114;6.542;2023-04-25T13:52:50;23.50;27.40
1405;DHT22;697;51.114;6.542;2023-04-25T13:55:17;22.30;28.30
1405;DHT22;697;51.114;6.542;2023-04-25T13:57:44;21.50;29.70
1405;DHT22;697;51.114;6.542;2023-04-25T14:00:12;20.50;30.40
1405;DHT22;697;51.114;6.542;2023-04-25T14:02:39;19.60;32.70
1405;DHT22;697;51.114;6.542;2023-04-25T14:05:07;19.00;35.10
1405;DHT22;697;51.114;6.542;2023-04-25T14:07:35;18.50;35.90
1405;DHT22;697;51.114;6.542;2023-04-25T14:10:02;18.20;35.40
1405;DHT22;697;51.114;6.542;2023-04-25T14:12:29;18.10;35.60
1405;DHT22;697;51.114;6.542;2023-04-25T14:14:56;18.00;34.50
1405;DHT22;697;51.114;6.542;2023-04-25T14:17:23;18.10;34.80
1405;DHT22;697;51.114;6.542;2023-04-25T14:19:50;18.20;35.60
1405;DHT22;697;51.114;6.542;2023-04-25T14:22:18;18.50;34.60
1405;DHT22;697;51.114;6.542;2023-04-25T14:24:45;19.20;33.50
1405;DHT22;697;51.114;6.542;2023-04-25T14:27:11;20.20;32.10
1405;DHT22;697;51.114;6.542;2023-04-25T14:29:38;21.50;30.70
1405;DHT22;697;51.114;6.542;2023-04-25T14:32:05;23.20;28.70
1405;DHT22;697;51.114;6.542;2023-04-25T14:34:32;24.80;26.90
1405;DHT22;697;51.114;6.542;2023-04-25T14:36:59;25.40;25.90
1405;DHT22;697;51.114;6.542;2023-04-25T14:39:27;26.40;24.00
1405;DHT22;697;51.114;6.542;2023-04-25T14:41:53;26.90;22.90
1405;DHT22;697;51.114;6.542;2023-04-25T14:44:21;27.00;23.00
1405;DHT22;697;51.114;6.542;2023-04-25T14:46:48;27.80;24.60
1405;DHT22;697;51.114;6.542;2023-04-25T14:49:17;29.00;24.70
1405;DHT22;697;51.114;6.542;2023-04-25T14:51:43;29.70;23.50
1405;DHT22;697;51.114;6.542;2023-04-25T14:54:10;30.60;22.50
1405;DHT22;697;51.114;6.542;2023-04-25T14:56:38;31.20;21.30
1405;DHT22;697;51.114;6.542;2023-04-25T14:59:05;31.50;21.80
1405;DHT22;697;51.114;6.542;2023-04-25T15:01:32;31.20;21.80
1405;DHT22;697;51.114;6.542;2023-04-25T15:03:59;30.30;22.80
1405;DHT22;697;51.114;6.542;2023-04-25T15:06:25;29.50;23.40
1405;DHT22;697;51.114;6.542;2023-04-25T15:08:54;28.30;24.80
1405;DHT22;697;51.114;6.542;2023-04-25T15:11:20;27.90;25.80
1405;DHT22;697;51.114;6.542;2023-04-25T15:13:49;27.90;26.10
1405;DHT22;697;51.114;6.542;2023-04-25T15:16:15;28.00;25.30
1405;DHT22;697;51.114;6.542;2023-04-25T15:18:42;28.20;24.90
1405;DHT22;697;51.114;6.542;2023-04-25T15:21:09;27.90;24.00
1405;DHT22;697;51.114;6.542;2023-04-25T15:23:36;27.40;23.70
1405;DHT22;697;51.114;6.542;2023-04-25T15:26:03;27.70;23.90
1405;DHT22;697;51.114;6.542;2023-04-25T15:28:30;28.70;24.10
1405;DHT22;697;51.114;6.542;2023-04-25T15:31:00;29.70;21.50
1405;DHT22;697;51.114;6.542;2023-04-25T15:33:27;30.40;21.20
1405;DHT22;697;51.114;6.542;2023-04-25T15:35:53;31.20;21.80
1405;DHT22;697;51.114;6.542;2023-04-25T15:38:20;31.80;21.90
1405;DHT22;697;51.114;6.542;2023-04-25T15:40:47;32.40;21.00
1405;DHT22;697;51.114;6.542;2023-04-25T15:43:13;32.10;19.70
1405;DHT22;697;51.114;6.542;2023-04-25T15:45:42;31.20;20.60
1405;DHT22;697;51.114;6.542;2023-04-25T15:48:11;29.90;21.20
1405;DHT22;697;51.114;6.542;2023-04-25T15:50:37;28.90;22.40
1405;DHT22;697;51.114;6.542;2023-04-25T15:53:04;28.00;23.40
1405;DHT22;697;51.114;6.542;2023-04-25T15:55:31;27.60;23.00
1405;DHT22;697;51.114;6.542;2023-04-25T15:57:58;27.40;23.80
1405;DHT22;697;51.114;6.542;2023-04-25T16:00:25;27.10;23.70
1405;DHT22;697;51.114;6.542;2023-04-25T16:02:52;26.30;23.60
1405;DHT22;697;51.114;6.542;2023-04-25T16:05:20;25.20;24.80
1405;DHT22;697;51.114;6.542;2023-04-25T16:07:47;24.70;25.80
1405;DHT22;697;51.114;6.542;2023-04-25T16:10:14;24.70;26.10
1405;DHT22;697;51.114;6.542;2023-04-25T16:12:44;25.10;26.20
1405;DHT22;697;51.114;6.542;2023-04-25T16:15:12;25.50;26.60
1405;DHT22;697;51.114;6.542;2023-04-25T16:17:39;25.50;25.10
1405;DHT22;697;51.114;6.542;2023-04-25T16:20:07;25.70;24.60
1405;DHT22;697;51.114;6.542;2023-04-25T16:22:37;25.70;24.40
1405;DHT22;697;51.114;6.542;2023-04-25T16:25:05;25.80;25.00
1405;DHT22;697;51.114;6.542;2023-04-25T16:27:32;25.90;24.50